Time;durP1;ratioP1;P1;durP2;ratioP2;P2;SDS_P1;SDS_P2;PMS_P1;PMS_P2;Temp;Humidity;BMP_temperature;BMP_pressure;BME280_temperature;BME280_humidity;BME280_pressure;Samples;Min_cycle;Max_cycle;Signal;HPM_P1;HPM_P2
2023/10/16 00:01:11;;;;;;;;;;;;;;;;;;5091258;28;19930;-62
2023/10/16 00:03:38;;;;;;;;;;;;;;;;;;5091437;28;19947;-62
2023/10/16 00:06:05;;;;;;;;;;;;;;;;;;5073245;28;20361;-62
2023/10/16 00:08:33;;;;;;;;;;;;;;;;;;5079963;22;19959;-62
2023/10/16 00:10:58;;;;;;;;;;;;;;;;;;5030099;28;19925;-61
2023/10/16 00:13:27;;;;;;;;;;;;;;;;;;5031252;28;19936;-61
2023/10/16 00:15:54;;;;;;;;;;;;;;;;;;5031453;28;19921;-61
2023/10/16 00:18:22;;;;;;;;;;;;;;;;;;5032754;28;20333;-61
2023/10/16 00:20:48;;;;;;;;;;;;;;;;;;5033651;28;19925;-61
2023/10/16 00:23:14;;;;;;;;;;;;;;;;;;5034251;28;19932;-61
2023/10/16 00:25:40;;;;;;;;;;;;;;;;;;5034207;28;19957;-62
2023/10/16 00:28:06;;;;;;;;;;;;;;;;;;5034597;28;19965;-62
2023/10/16 00:30:31;;;;;;;;;;;;;;;;;;5034211;28;19956;-61
2023/10/16 00:32:58;;;;;;;;;;;;;;;;;;5032493;28;19921;-62
2023/10/16 00:35:24;;;;;;;;;;;;;;;;;;5032479;28;19979;-63
2023/10/16 00:37:50;;;;;;;;;;;;;;;;;;5033851;28;19965;-63
2023/10/16 00:40:29;;;;;;;;;;;;;;;;;;5034048;28;19921;-62
2023/10/16 00:42:55;;;;;;;;;;;;;;;;;;5033437;28;20379;-63
2023/10/16 00:45:21;;;;;;;;;;;;;;;;;;5033979;28;19921;-62
2023/10/16 00:47:47;;;;;;;;;;;;;;;;;;5034410;28;19921;-63
2023/10/16 00:50:14;;;;;;;;;;;;;;;;;;5034608;28;19932;-63
2023/10/16 00:52:42;;;;;;;;;;;;;;;;;;5034651;28;19967;-63
2023/10/16 00:55:11;;;;;;;;;;;;;;;;;;5034847;28;20043;-62
2023/10/16 00:57:36;;;;;;;;;;;;;;;;;;5034470;28;20402;-62
2023/10/16 01:00:12;;;;;;;;;;;;;;;;;;5034472;28;19975;-63
2023/10/16 01:02:40;;;;;;;;;;;;;;;;;;5034503;28;19926;-62
2023/10/16 01:05:07;;;;;;;;;;;;;;;;;;5016492;28;19921;-62
2023/10/16 01:07:33;;;;;;;;;;;;;;;;;;5034409;28;20357;-62
2023/10/16 01:09:59;;;;;;;;;;;;;;;;;;5034091;28;19929;-62
2023/10/16 01:12:25;;;;;;;;;;;;;;;;;;5034298;28;19921;-61
2023/10/16 01:14:51;;;;;;;;;;;;;;;;;;5034226;28;19921;-61
2023/10/16 01:17:29;;;;;;;;;;;;;;;;;;5034035;28;19995;-62
2023/10/16 01:19:56;;;;;;;;;;;;;;;;;;5032693;28;19921;-61
2023/10/16 01:22:22;;;;;;;;;;;;;;;;;;5034236;28;19925;-61
2023/10/16 01:24:48;;;;;;;;;;;;;;;;;;5032458;28;19951;-62
2023/10/16 01:27:26;;;;;;;;;;;;;;;;;;5033850;28;19925;-62
2023/10/16 01:29:52;;;;;;;;;;;;;;;;;;5033282;28;20486;-62
2023/10/16 01:32:18;;;;;;;;;;;;;;;;;;5033988;28;19968;-62
2023/10/16 01:34:46;;;;;;;;;;;;;;;;;;5033934;28;19972;-62
2023/10/16 01:37:17;;;;;;;;;;;;;;;;;;5034010;28;19925;-62
2023/10/16 01:39:49;;;;;;;;;;;;;;;;;;5033696;28;19929;-62
2023/10/16 01:42:15;;;;;;;;;;;;;;;;;;5032172;28;20349;-62
2023/10/16 01:44:44;;;;;;;;;;;;;;;;;;5033658;28;19921;-62
2023/10/16 01:47:14;;;;;;;;;;;;;;;;;;5033709;28;19921;-61
2023/10/16 01:49:39;;;;;;;;;;;;;;;;;;5033378;28;19921;-61
2023/10/16 01:52:10;;;;;;;;;;;;;;;;;;5033678;28;19971;-61
2023/10/16 01:54:38;;;;;;;;;;;;;;;;;;5015563;28;19921;-62
2023/10/16 01:57:10;;;;;;;;;;;;;;;;;;5033280;28;19925;-62
2023/10/16 01:59:35;;;;;;;;;;;;;;;;;;5032725;28;20295;-62
2023/10/16 02:02:01;;;;;;;;;;;;;;;;;;4998209;28;19925;-62
2023/10/16 02:04:27;;;;;;;;;;;;;;;;;;5032394;28;20010;-62
2023/10/16 02:06:53;;;;;;;;;;;;;;;;;;5032429;28;20350;-62
2023/10/16 02:09:23;;;;;;;;;;;;;;;;;;5032259;28;19933;-62
2023/10/16 02:11:49;;;;;;;;;;;;;;;;;;5032613;28;19956;-62
2023/10/16 02:14:15;;;;;;;;;;;;;;;;;;5032372;28;19925;-62
2023/10/16 02:16:41;;;;;;;;;;;;;;;;;;5014856;28;19956;-62
2023/10/16 02:19:07;;;;;;;;;;;;;;;;;;5032450;28;19968;-62
2023/10/16 02:21:34;;;;;;;;;;;;;;;;;;5032737;28;19999;-62
2023/10/16 02:24:03;;;;;;;;;;;;;;;;;;5032367;28;19929;-62
2023/10/16 02:26:30;;;;;;;;;;;;;;;;;;5013988;28;19956;-63
2023/10/16 02:28:58;;;;;;;;;;;;;;;;;;5032013;28;19936;-62
2023/10/16 02:31:25;;;;;;;;;;;;;;;;;;5031796;28;19928;-62
2023/10/16 02:33:51;;;;;;;;;;;;;;;;;;5031988;28;20227;-62
2023/10/16 02:36:18;;;;;;;;;;;;;;;;;;5031620;28;20016;-62
2023/10/16 02:38:43;;;;;;;;;;;;;;;;;;5032229;28;19931;-62
2023/10/16 02:41:09;;;;;;;;;;;;;;;;;;5032032;28;20016;-62
2023/10/16 02:43:41;;;;;;;;;;;;;;;;;;5031861;28;20016;-62
2023/10/16 02:46:11;;;;;;;;;;;;;;;;;;5031938;28;19921;-62
2023/10/16 02:48:36;;;;;;;;;;;;;;;;;;5032233;28;19929;-62
2023/10/16 02:51:02;;;;;;;;;;;;;;;;;;5032158;28;20375;-62
2023/10/16 02:53:28;;;;;;;;;;;;;;;;;;5032534;28;20018;-62
2023/10/16 02:55:57;;;;;;;;;;;;;;;;;;5014511;28;19925;-62
2023/10/16 02:58:24;;;;;;;;;;;;;;;;;;5032341;28;19924;-62
2023/10/16 03:00:50;;;;;;;;;;;;;;;;;;5032398;28;20315;-62
2023/10/16 03:03:16;;;;;;;;;;;;;;;;;;5014328;28;20008;-62
2023/10/16 03:05:44;;;;;;;;;;;;;;;;;;5032287;28;20063;-62
2023/10/16 03:08:10;;;;;;;;;;;;;;;;;;5032102;28;20390;-62
2023/10/16 03:10:40;;;;;;;;;;;;;;;;;;5031876;28;20018;-62
2023/10/16 03:13:06;;;;;;;;;;;;;;;;;;5032127;28;19924;-62
2023/10/16 03:15:38;;;;;;;;;;;;;;;;;;5032183;28;19933;-62
2023/10/16 03:18:04;;;;;;;;;;;;;;;;;;5032174;28;19928;-62
2023/10/16 03:20:36;;;;;;;;;;;;;;;;;;5032142;28;19921;-62
2023/10/16 03:23:07;;;;;;;;;;;;;;;;;;5014118;28;20371;-62
2023/10/16 03:28:08;;;;;;;;;;;;;;;;;;5032035;28;19929;-62
2023/10/16 03:30:34;;;;;;;;;;;;;;;;;;5031944;28;20394;-62
2023/10/16 03:33:00;;;;;;;;;;;;;;;;;;5031993;28;20280;-62
2023/10/16 03:35:26;;;;;;;;;;;;;;;;;;5031864;28;19979;-61
2023/10/16 03:37:52;;;;;;;;;;;;;;;;;;5031915;28;19921;-61
2023/10/16 03:40:19;;;;;;;;;;;;;;;;;;5013978;28;20025;-61
2023/10/16 03:42:45;;;;;;;;;;;;;;;;;;5014121;28;19925;-61
2023/10/16 03:45:13;;;;;;;;;;;;;;;;;;5031823;28;20429;-61
2023/10/16 03:47:39;;;;;;;;;;;;;;;;;;5030521;28;19921;-62
2023/10/16 03:50:05;;;;;;;;;;;;;;;;;;5031737;28;20373;-62
2023/10/16 03:52:31;;;;;;;;;;;;;;;;;;5030817;28;19925;-63
2023/10/16 03:54:57;;;;;;;;;;;;;;;;;;5035921;28;19955;-62
2023/10/16 03:57:23;;;;;;;;;;;;;;;;;;5035679;28;19921;-62
2023/10/16 03:59:49;;;;;;;;;;;;;;;;;;5035824;28;20248;-62
2023/10/16 04:02:22;;;;;;;;;;;;;;;;;;5035401;28;19937;-62
2023/10/16 04:04:53;;;;;;;;;;;;;;;;;;5035608;28;19925;-62
2023/10/16 04:07:22;;;;;;;;;;;;;;;;;;5035292;28;19928;-61
2023/10/16 04:09:52;;;;;;;;;;;;;;;;;;5017449;28;19933;-61
2023/10/16 04:12:21;;;;;;;;;;;;;;;;;;5035419;28;19921;-61
2023/10/16 04:15:03;;;;;;;;;;;;;;;;;;5035444;28;20012;-61
2023/10/16 04:17:34;;;;;;;;;;;;;;;;;;5035058;28;20379;-61
2023/10/16 04:20:30;;;;;;;;;;;;;;;;;;5035683;28;19997;-61
2023/10/16 04:22:57;;;;;;;;;;;;;;;;;;5034876;28;20024;-62
2023/10/16 04:25:32;;;;;;;;;;;;;;;;;;5017323;28;20378;-62
2023/10/16 04:28:18;;;;;;;;;;;;;;;;;;5017269;28;19921;-62
2023/10/16 04:30:47;;;;;;;;;;;;;;;;;;5034763;28;19978;-62
2023/10/16 04:33:15;;;;;;;;;;;;;;;;;;5017075;28;19951;-62
2023/10/16 04:46:23;;;;;;;;;;;;;;;;;;5034711;28;20331;-62
2023/10/16 04:48:50;;;;;;;;;;;;;;;;;;5034882;28;19936;-62
2023/10/16 04:51:17;;;;;;;;;;;;;;;;;;5034531;28;19922;-62
2023/10/16 04:53:58;;;;;;;;;;;;;;;;;;5034630;28;19928;-62
2023/10/16 04:59:58;;;;;;;;;;;;;;;;;;5000701;28;20386;-62
2023/10/16 05:02:33;;;;;;;;;;;;;;;;;;5034057;28;20359;-63
2023/10/16 05:05:32;;;;;;;;;;;;;;;;;;5033313;28;19925;-62
2023/10/16 05:07:46;;;;;;;;;;;;;;;;;;5034130;28;19974;-62
2023/10/16 05:10:12;;;;;;;;;;;;;;;;;;5034159;28;19925;-62
2023/10/16 05:15:51;;;;;;;;;;;;;;;;;;5034295;28;19925;-62
2023/10/16 05:18:42;;;;;;;;;;;;;;;;;;5033909;28;19921;-62
2023/10/16 05:21:19;;;;;;;;;;;;;;;;;;5016141;28;19964;-62
2023/10/16 06:15:50;;;;;;;;;;;;;;;;;;5032901;28;19921;-61
2023/10/16 06:18:16;;;;;;;;;;;;;;;;;;5032980;28;19921;-61
2023/10/16 06:20:43;;;;;;;;;;;;;;;;;;5033108;28;19929;-61
2023/10/16 06:23:11;;;;;;;;;;;;;;;;;;5032624;28;19929;-61
2023/10/16 06:25:37;;;;;;;;;;;;;;;;;;5032630;28;19928;-61
2023/10/16 06:28:10;;;;;;;;;;;;;;;;;;5032846;28;19920;-61
2023/10/16 06:30:37;;;;;;;;;;;;;;;;;;5014971;28;20394;-61
2023/10/16 06:33:03;;;;;;;;;;;;;;;;;;5032605;28;19925;-61
2023/10/16 06:35:29;;;;;;;;;;;;;;;;;;5032541;28;19952;-62
2023/10/16 06:37:55;;;;;;;;;;;;;;;;;;5032318;28;19921;-62
2023/10/16 06:40:24;;;;;;;;;;;;;;;;;;5032709;28;19929;-62
2023/10/16 06:42:54;;;;;;;;;;;;;;;;;;5032398;28;19955;-62
2023/10/16 06:45:21;;;;;;;;;;;;;;;;;;5032182;28;20434;-63
2023/10/16 06:47:48;;;;;;;;;;;;;;;;;;5032400;28;20015;-62
2023/10/16 06:50:33;;;;;;;;;;;;;;;;;;5032107;28;20016;-62
2023/10/16 06:53:03;;;;;;;;;;;;;;;;;;5014563;28;19921;-62
2023/10/16 06:55:28;;;;;;;;;;;;;;;;;;5014099;28;19929;-62
2023/10/16 06:57:54;;;;;;;;;;;;;;;;;;5032403;28;20420;-61
2023/10/16 07:02:54;;;;;;;;;;;;;;;;;;5032008;28;19936;-61
2023/10/16 07:05:22;;;;;;;;;;;;;;;;;;5030708;28;19948;-61
2023/10/16 07:07:48;;;;;;;;;;;;;;;;;;5032262;28;19968;-62
2023/10/16 07:10:14;;;;;;;;;;;;;;;;;;5014027;28;19973;-61
2023/10/16 07:12:58;;;;;;;;;;;;;;;;;;5032293;28;20256;-62
2023/10/16 07:15:25;;;;;;;;;;;;;;;;;;5032013;28;19996;-62
2023/10/16 07:17:51;;;;;;;;;;;;;;;;;;5032067;28;20010;-62
2023/10/16 07:20:29;;;;;;;;;;;;;;;;;;5014028;28;19925;-62
2023/10/16 07:23:09;;;;;;;;;;;;;;;;;;5030640;28;19932;-62
2023/10/16 07:25:47;;;;;;;;;;;;;;;;;;5031897;28;19921;-62
2023/10/16 07:28:13;;;;;;;;;;;;;;;;;;5031353;28;19931;-62
2023/10/16 07:30:42;;;;;;;;;;;;;;;;;;5031886;28;20015;-62
2023/10/16 07:33:14;;;;;;;;;;;;;;;;;;5031661;28;20374;-62
2023/10/16 07:35:41;;;;;;;;;;;;;;;;;;5031948;28;19925;-62
2023/10/16 07:38:09;;;;;;;;;;;;;;;;;;5032029;28;19921;-62
2023/10/16 07:40:37;;;;;;;;;;;;;;;;;;5031652;28;19925;-63
2023/10/16 07:43:03;;;;;;;;;;;;;;;;;;5031852;28;19929;-62
2023/10/16 07:45:32;;;;;;;;;;;;;;;;;;5031652;28;19990;-62
2023/10/16 07:48:07;;;;;;;;;;;;;;;;;;5031902;28;19969;-63
2023/10/16 07:50:33;;;;;;;;;;;;;;;;;;5013794;28;19928;-62
2023/10/16 07:53:01;;;;;;;;;;;;;;;;;;5031702;28;19963;-62
2023/10/16 07:55:38;;;;;;;;;;;;;;;;;;5013637;28;19932;-62
2023/10/16 07:58:15;;;;;;;;;;;;;;;;;;5031543;28;19925;-62
2023/10/16 08:00:42;;;;;;;;;;;;;;;;;;5031419;28;19921;-62
2023/10/16 08:03:13;;;;;;;;;;;;;;;;;;5013734;28;20370;-62
2023/10/16 08:05:47;;;;;;;;;;;;;;;;;;5031604;28;19921;-62
2023/10/16 08:08:12;;;;;;;;;;;;;;;;;;5031498;28;20573;-62
2023/10/16 08:10:41;;;;;;;;;;;;;;;;;;5031112;28;19929;-62
2023/10/16 08:13:18;;;;;;;;;;;;;;;;;;5013710;28;19921;-62
2023/10/16 08:15:51;;;;;;;;;;;;;;;;;;5013448;28;19971;-63
2023/10/16 08:18:18;;;;;;;;;;;;;;;;;;5031528;28;20506;-62
2023/10/16 08:20:49;;;;;;;;;;;;;;;;;;5031370;28;19928;-62
2023/10/16 08:23:15;;;;;;;;;;;;;;;;;;5031487;28;19971;-62
2023/10/16 08:25:41;;;;;;;;;;;;;;;;;;5031454;28;20022;-62
2023/10/16 08:28:20;;;;;;;;;;;;;;;;;;5031417;28;19921;-62
2023/10/16 08:30:50;;;;;;;;;;;;;;;;;;5031102;28;20496;-62
2023/10/16 08:33:16;;;;;;;;;;;;;;;;;;5031103;28;19921;-62
2023/10/16 08:35:42;;;;;;;;;;;;;;;;;;5013087;28;20395;-63
2023/10/16 08:38:20;;;;;;;;;;;;;;;;;;5031476;28;19936;-63
2023/10/16 08:40:46;;;;;;;;;;;;;;;;;;5034775;28;19928;-63
2023/10/16 08:43:17;;;;;;;;;;;;;;;;;;5034958;28;19925;-63
2023/10/16 08:45:49;;;;;;;;;;;;;;;;;;5016759;28;19928;-62
2023/10/16 08:48:17;;;;;;;;;;;;;;;;;;5034751;28;19921;-62
2023/10/16 08:50:44;;;;;;;;;;;;;;;;;;5034379;28;20438;-62
2023/10/16 08:55:56;;;;;;;;;;;;;;;;;;5034527;28;19921;-63
2023/10/16 08:58:22;;;;;;;;;;;;;;;;;;5034592;28;20012;-62
2023/10/16 09:00:48;;;;;;;;;;;;;;;;;;5034404;28;19925;-62
2023/10/16 09:03:16;;;;;;;;;;;;;;;;;;5034186;28;20063;-62
2023/10/16 09:05:43;;;;;;;;;;;;;;;;;;5034260;28;20373;-63
2023/10/16 09:08:14;;;;;;;;;;;;;;;;;;5034437;28;19976;-62
2023/10/16 09:10:40;;;;;;;;;;;;;;;;;;5033872;28;19924;-63
2023/10/16 09:13:19;;;;;;;;;;;;;;;;;;5034359;28;19921;-62
2023/10/16 09:15:45;;;;;;;;;;;;;;;;;;4999618;28;20421;-62
2023/10/16 09:18:11;;;;;;;;;;;;;;;;;;4999753;28;19971;-63
2023/10/16 09:20:41;;;;;;;;;;;;;;;;;;5034134;28;19979;-62
2023/10/16 09:23:07;;;;;;;;;;;;;;;;;;5033999;28;19925;-62
2023/10/16 09:25:33;;;;;;;;;;;;;;;;;;5049592;28;19932;-62
2023/10/16 09:27:59;;;;;;;;;;;;;;;;;;5033675;28;20381;-62
2023/10/16 09:30:28;;;;;;;;;;;;;;;;;;5049234;28;19971;-62
2023/10/16 09:32:54;;;;;;;;;;;;;;;;;;5033599;28;19964;-62
2023/10/16 09:35:30;;;;;;;;;;;;;;;;;;5033903;28;19921;-62
2023/10/16 09:37:57;;;;;;;;;;;;;;;;;;5033925;28;19943;-62
2023/10/16 09:40:38;;;;;;;;;;;;;;;;;;5033748;28;19929;-62
2023/10/16 09:43:08;;;;;;;;;;;;;;;;;;5033411;28;19928;-62
2023/10/16 09:45:34;;;;;;;;;;;;;;;;;;5033696;28;19925;-62
2023/10/16 09:48:07;;;;;;;;;;;;;;;;;;5033655;28;19963;-62
2023/10/16 09:50:33;;;;;;;;;;;;;;;;;;5033125;28;19928;-62
2023/10/16 09:53:01;;;;;;;;;;;;;;;;;;5033192;28;19925;-62
2023/10/16 09:55:27;;;;;;;;;;;;;;;;;;5033545;28;19928;-63
2023/10/16 09:57:54;;;;;;;;;;;;;;;;;;5033300;28;19974;-62
2023/10/16 10:00:31;;;;;;;;;;;;;;;;;;5033240;28;19952;-60
2023/10/16 10:02:57;;;;;;;;;;;;;;;;;;5032939;28;19925;-60
2023/10/16 10:05:31;;;;;;;;;;;;;;;;;;5033163;28;19932;-61
2023/10/16 10:07:59;;;;;;;;;;;;;;;;;;5033289;28;19931;-61
2023/10/16 10:13:02;;;;;;;;;;;;;;;;;;5032450;28;20215;-61
2023/10/16 10:15:30;;;;;;;;;;;;;;;;;;5032909;28;20367;-61
2023/10/16 10:18:01;;;;;;;;;;;;;;;;;;5031473;28;19979;-61
2023/10/16 10:20:31;;;;;;;;;;;;;;;;;;5033170;28;19932;-62
2023/10/16 10:23:04;;;;;;;;;;;;;;;;;;5032488;28;19925;-62
2023/10/16 10:25:37;;;;;;;;;;;;;;;;;;5048078;28;19967;-62
2023/10/16 10:28:17;;;;;;;;;;;;;;;;;;5032694;28;19921;-62
2023/10/16 10:30:43;;;;;;;;;;;;;;;;;;5032888;28;19928;-62
2023/10/16 10:33:10;;;;;;;;;;;;;;;;;;5014631;28;19928;-62
2023/10/16 10:35:39;;;;;;;;;;;;;;;;;;5032715;28;19964;-62
2023/10/16 10:38:17;;;;;;;;;;;;;;;;;;5032508;28;19956;-62
2023/10/16 10:40:43;;;;;;;;;;;;;;;;;;5032498;28;19947;-62
2023/10/16 10:43:09;;;;;;;;;;;;;;;;;;5032176;28;20354;-62
2023/10/16 10:45:35;;;;;;;;;;;;;;;;;;5032357;28;19928;-62
2023/10/16 10:48:00;;;;;;;;;;;;;;;;;;5014315;28;19921;-62
2023/10/16 10:50:26;;;;;;;;;;;;;;;;;;5032523;28;19925;-62
2023/10/16 10:52:52;;;;;;;;;;;;;;;;;;5032153;28;19928;-62
2023/10/16 10:55:18;;;;;;;;;;;;;;;;;;5031840;28;20372;-62
2023/10/16 10:57:47;;;;;;;;;;;;;;;;;;5031528;28;19921;-62
2023/10/16 11:05:24;;;;;;;;;;;;;;;;;;5031368;28;19921;-62
2023/10/16 11:10:39;;;;;;;;;;;;;;;;;;5030855;28;20563;-62
2023/10/16 11:13:05;;;;;;;;;;;;;;;;;;5030822;28;20019;-62
2023/10/16 11:15:30;;;;;;;;;;;;;;;;;;5031254;28;20008;-62
2023/10/16 11:18:05;;;;;;;;;;;;;;;;;;5031012;28;19925;-62
2023/10/16 11:20:31;;;;;;;;;;;;;;;;;;5031338;28;19921;-62
2023/10/16 11:22:57;;;;;;;;;;;;;;;;;;5031900;28;19936;-63
2023/10/16 11:25:32;;;;;;;;;;;;;;;;;;5031847;28;20570;-62
2023/10/16 11:27:58;;;;;;;;;;;;;;;;;;5047065;28;19929;-62
2023/10/16 11:30:26;;;;;;;;;;;;;;;;;;5031959;28;19921;-62
2023/10/16 11:32:52;;;;;;;;;;;;;;;;;;5031822;28;19925;-62
2023/10/16 11:35:19;;;;;;;;;;;;;;;;;;5031849;28;19925;-62
2023/10/16 11:37:49;;;;;;;;;;;;;;;;;;5047080;28;19921;-62
2023/10/16 11:40:18;;;;;;;;;;;;;;;;;;5031436;28;19922;-62
2023/10/16 11:42:44;;;;;;;;;;;;;;;;;;5046902;28;20018;-62
2023/10/16 11:45:18;;;;;;;;;;;;;;;;;;5031817;28;20367;-62
2023/10/16 11:47:44;;;;;;;;;;;;;;;;;;5031859;28;19921;-62
2023/10/16 11:50:15;;;;;;;;;;;;;;;;;;5031531;28;20051;-62
2023/10/16 11:52:41;;;;;;;;;;;;;;;;;;5031745;28;19925;-61
2023/10/16 11:55:07;;;;;;;;;;;;;;;;;;5031651;28;19927;-62
2023/10/16 11:57:33;;;;;;;;;;;;;;;;;;5031757;28;19921;-62
2023/10/16 12:00:00;;;;;;;;;;;;;;;;;;5031212;28;20013;-62
2023/10/16 12:02:29;;;;;;;;;;;;;;;;;;5030623;28;19964;-62
2023/10/16 12:04:57;;;;;;;;;;;;;;;;;;5030817;28;19928;-62
2023/10/16 12:07:23;;;;;;;;;;;;;;;;;;5030836;28;19921;-62
2023/10/16 12:09:51;;;;;;;;;;;;;;;;;;5012494;28;19935;-62
2023/10/16 12:12:20;;;;;;;;;;;;;;;;;;5030587;28;19987;-62
2023/10/16 12:14:48;;;;;;;;;;;;;;;;;;5032604;28;20425;-63
2023/10/16 12:17:13;;;;;;;;;;;;;;;;;;5034136;28;19929;-62
2023/10/16 12:19:40;;;;;;;;;;;;;;;;;;5049582;28;20015;-62
2023/10/16 12:22:08;;;;;;;;;;;;;;;;;;5049766;28;19921;-62
2023/10/16 12:24:34;;;;;;;;;;;;;;;;;;5049214;22;20027;-63
2023/10/16 12:27:04;;;;;;;;;;;;;;;;;;5017454;28;20020;-64
2023/10/16 12:29:30;;;;;;;;;;;;;;;;;;5035191;28;19936;-64
2023/10/16 12:31:58;;;;;;;;;;;;;;;;;;5034912;28;19975;-64
2023/10/16 12:34:24;;;;;;;;;;;;;;;;;;5035104;28;19929;-64
2023/10/16 12:36:50;;;;;;;;;;;;;;;;;;5016371;28;19932;-65
2023/10/16 12:39:16;;;;;;;;;;;;;;;;;;5033019;28;19921;-65
2023/10/16 12:41:42;;;;;;;;;;;;;;;;;;5034843;28;20418;-65
2023/10/16 12:44:09;;;;;;;;;;;;;;;;;;5033110;28;19936;-64
2023/10/16 12:46:35;;;;;;;;;;;;;;;;;;5016299;28;19996;-64
2023/10/16 12:49:06;;;;;;;;;;;;;;;;;;5034564;28;19929;-64
2023/10/16 12:51:33;;;;;;;;;;;;;;;;;;5034426;28;20012;-64
2023/10/16 12:54:03;;;;;;;;;;;;;;;;;;5051269;28;19936;-64
2023/10/16 12:56:28;;;;;;;;;;;;;;;;;;5056253;28;19982;-64
2023/10/16 12:58:55;;;;;;;;;;;;;;;;;;5036580;28;20396;-64
2023/10/16 13:01:21;;;;;;;;;;;;;;;;;;5034103;28;19921;-65
2023/10/16 13:03:47;;;;;;;;;;;;;;;;;;5016417;28;19926;-64
2023/10/16 13:06:14;;;;;;;;;;;;;;;;;;5016316;28;19925;-64
2023/10/16 13:08:42;;;;;;;;;;;;;;;;;;5034166;28;19921;-64
2023/10/16 13:11:07;;;;;;;;;;;;;;;;;;5034047;28;19936;-64
2023/10/16 13:13:34;;;;;;;;;;;;;;;;;;5033953;28;19921;-65
2023/10/16 13:16:00;;;;;;;;;;;;;;;;;;5033830;28;20350;-65
2023/10/16 13:18:28;;;;;;;;;;;;;;;;;;5051011;28;19947;-65
2023/10/16 13:20:57;;;;;;;;;;;;;;;;;;5053790;28;19928;-65
2023/10/16 13:23:23;;;;;;;;;;;;;;;;;;5053894;28;19929;-65
2023/10/16 13:25:49;;;;;;;;;;;;;;;;;;5034661;28;19959;-65
2023/10/16 13:28:15;;;;;;;;;;;;;;;;;;5053713;28;19924;-65
2023/10/16 13:30:41;;;;;;;;;;;;;;;;;;5053334;28;19964;-65
2023/10/16 13:33:08;;;;;;;;;;;;;;;;;;5043451;28;20427;-65
2023/10/16 13:35:38;;;;;;;;;;;;;;;;;;5015966;28;20256;-65
2023/10/16 13:38:04;;;;;;;;;;;;;;;;;;5033392;28;20073;-65
2023/10/16 13:40:32;;;;;;;;;;;;;;;;;;5032730;28;19925;-65
2023/10/16 13:43:02;;;;;;;;;;;;;;;;;;5032651;28;20016;-63
2023/10/16 13:45:28;;;;;;;;;;;;;;;;;;5014671;28;20039;-64
2023/10/16 13:47:54;;;;;;;;;;;;;;;;;;5014386;28;20045;-65
2023/10/16 13:50:28;;;;;;;;;;;;;;;;;;5032600;28;19971;-63
2023/10/16 13:52:54;;;;;;;;;;;;;;;;;;5048799;28;20377;-64
2023/10/16 13:55:23;;;;;;;;;;;;;;;;;;5072208;28;19921;-64
2023/10/16 13:57:49;;;;;;;;;;;;;;;;;;5072365;28;19931;-63
2023/10/16 14:00:28;;;;;;;;;;;;;;;;;;5072762;28;19925;-64
2023/10/16 14:02:54;;;;;;;;;;;;;;;;;;5072968;28;20025;-64
2023/10/16 14:05:20;;;;;;;;;;;;;;;;;;5054409;28;19972;-64
2023/10/16 14:07:46;;;;;;;;;;;;;;;;;;5054019;28;19926;-64
2023/10/16 14:10:13;;;;;;;;;;;;;;;;;;5072257;28;19931;-64
2023/10/16 14:12:41;;;;;;;;;;;;;;;;;;5071997;28;19936;-64
2023/10/16 14:15:15;;;;;;;;;;;;;;;;;;5054149;28;19925;-63
2023/10/16 14:17:43;;;;;;;;;;;;;;;;;;5043316;28;20247;-63
2023/10/16 14:20:11;;;;;;;;;;;;;;;;;;5051977;28;19929;-63
2023/10/16 14:22:47;;;;;;;;;;;;;;;;;;5033713;28;19928;-64
2023/10/16 14:25:13;;;;;;;;;;;;;;;;;;5033731;28;19976;-64
2023/10/16 14:27:39;;;;;;;;;;;;;;;;;;5033872;28;19924;-63
2023/10/16 14:30:05;;;;;;;;;;;;;;;;;;5033968;28;19921;-63
2023/10/16 14:32:32;;;;;;;;;;;;;;;;;;5052429;28;19948;-65
2023/10/16 14:34:58;;;;;;;;;;;;;;;;;;5051683;28;20326;-65
2023/10/16 14:37:24;;;;;;;;;;;;;;;;;;5051450;28;20011;-65
2023/10/16 14:39:51;;;;;;;;;;;;;;;;;;5051676;28;19928;-65
2023/10/16 14:42:17;;;;;;;;;;;;;;;;;;5033722;28;19983;-64
2023/10/16 14:44:45;;;;;;;;;;;;;;;;;;5031728;28;20386;-64
2023/10/16 14:47:10;;;;;;;;;;;;;;;;;;5030041;28;20007;-64
2023/10/16 14:49:37;;;;;;;;;;;;;;;;;;5031976;28;20355;-64
2023/10/16 14:52:03;;;;;;;;;;;;;;;;;;5034525;28;20282;-65
2023/10/16 14:54:29;;;;;;;;;;;;;;;;;;5071343;28;19928;-65
2023/10/16 14:56:59;;;;;;;;;;;;;;;;;;5053221;28;19920;-65
2023/10/16 14:59:25;;;;;;;;;;;;;;;;;;5071259;28;20373;-65
2023/10/16 15:01:51;;;;;;;;;;;;;;;;;;5071154;28;19971;-64
2023/10/16 15:04:17;;;;;;;;;;;;;;;;;;5086619;28;20015;-65
2023/10/16 15:06:44;;;;;;;;;;;;;;;;;;5071370;28;19927;-65
2023/10/16 15:09:15;;;;;;;;;;;;;;;;;;5071331;28;20278;-65
2023/10/16 15:11:41;;;;;;;;;;;;;;;;;;5086535;28;19920;-64
2023/10/16 15:14:07;;;;;;;;;;;;;;;;;;5070939;28;19952;-64
2023/10/16 15:16:33;;;;;;;;;;;;;;;;;;5069520;28;20281;-64
2023/10/16 15:19:00;;;;;;;;;;;;;;;;;;5050716;28;19962;-65
2023/10/16 15:21:26;;;;;;;;;;;;;;;;;;5033103;28;19928;-65
2023/10/16 15:23:53;;;;;;;;;;;;;;;;;;5032771;28;19949;-65
2023/10/16 15:26:18;;;;;;;;;;;;;;;;;;5051581;28;20374;-65
2023/10/16 15:28:45;;;;;;;;;;;;;;;;;;5051687;28;19921;-65
2023/10/16 15:31:12;;;;;;;;;;;;;;;;;;5033625;28;20066;-65
2023/10/16 15:33:38;;;;;;;;;;;;;;;;;;5051646;28;20066;-64
2023/10/16 15:36:04;;;;;;;;;;;;;;;;;;5051761;28;20401;-65
2023/10/16 15:38:30;;;;;;;;;;;;;;;;;;5051452;28;19927;-64
2023/10/16 15:40:56;;;;;;;;;;;;;;;;;;5051650;28;20633;-65
2023/10/16 15:43:22;;;;;;;;;;;;;;;;;;5051218;28;19925;-64
2023/10/16 15:45:50;;;;;;;;;;;;;;;;;;5051512;28;19921;-64
2023/10/16 15:48:16;;;;;;;;;;;;;;;;;;5017210;28;20381;-65
2023/10/16 15:50:44;;;;;;;;;;;;;;;;;;5055694;28;19997;-65
2023/10/16 15:53:10;;;;;;;;;;;;;;;;;;5065823;28;20269;-65
2023/10/16 15:55:35;;;;;;;;;;;;;;;;;;5057289;28;20001;-64
2023/10/16 15:58:02;;;;;;;;;;;;;;;;;;5057174;28;19963;-64
2023/10/16 16:00:28;;;;;;;;;;;;;;;;;;5075105;28;19999;-63
2023/10/16 16:02:54;;;;;;;;;;;;;;;;;;5075210;28;20357;-64
2023/10/16 16:05:20;;;;;;;;;;;;;;;;;;5075228;28;19967;-65
2023/10/16 16:07:48;;;;;;;;;;;;;;;;;;5073757;28;20430;-65
2023/10/16 16:10:15;;;;;;;;;;;;;;;;;;5057475;28;19927;-64
2023/10/16 16:12:42;;;;;;;;;;;;;;;;;;5075449;28;19921;-64
2023/10/16 16:15:08;;;;;;;;;;;;;;;;;;5057502;28;19921;-64
2023/10/16 16:17:35;;;;;;;;;;;;;;;;;;5064784;28;19970;-65
2023/10/16 16:20:01;;;;;;;;;;;;;;;;;;5054717;28;20281;-64
2023/10/16 16:22:27;;;;;;;;;;;;;;;;;;5054828;28;19925;-64
2023/10/16 16:24:54;;;;;;;;;;;;;;;;;;5036493;28;19929;-63
2023/10/16 16:27:19;;;;;;;;;;;;;;;;;;5054968;28;19921;-65
2023/10/16 16:29:46;;;;;;;;;;;;;;;;;;5054448;28;20251;-64
2023/10/16 16:32:12;;;;;;;;;;;;;;;;;;5036465;28;19964;-65
2023/10/16 16:34:40;;;;;;;;;;;;;;;;;;5036459;28;20046;-63
2023/10/16 16:37:07;;;;;;;;;;;;;;;;;;5054373;28;19925;-64
2023/10/16 16:39:33;;;;;;;;;;;;;;;;;;5054045;28;19921;-65
2023/10/16 16:41:59;;;;;;;;;;;;;;;;;;5036542;28;20019;-64
2023/10/16 16:44:25;;;;;;;;;;;;;;;;;;5054288;28;19925;-64
2023/10/16 16:46:51;;;;;;;;;;;;;;;;;;5036209;28;19928;-64
2023/10/16 16:49:17;;;;;;;;;;;;;;;;;;5035693;28;19955;-65
2023/10/16 16:51:43;;;;;;;;;;;;;;;;;;5035955;28;19925;-65
2023/10/16 16:54:11;;;;;;;;;;;;;;;;;;5054942;28;19985;-64
2023/10/16 16:56:37;;;;;;;;;;;;;;;;;;5074144;28;20373;-64
2023/10/16 16:59:05;;;;;;;;;;;;;;;;;;5016924;28;19925;-64
2023/10/16 17:01:32;;;;;;;;;;;;;;;;;;5016474;28;19928;-64
2023/10/16 17:03:58;;;;;;;;;;;;;;;;;;5033952;28;19925;-63
2023/10/16 17:06:24;;;;;;;;;;;;;;;;;;5016609;28;19921;-65
2023/10/16 17:08:51;;;;;;;;;;;;;;;;;;5016446;28;19921;-65
2023/10/16 17:11:17;;;;;;;;;;;;;;;;;;5034243;28;19921;-64
2023/10/16 17:13:43;;;;;;;;;;;;;;;;;;5016277;28;20349;-65
2023/10/16 17:16:09;;;;;;;;;;;;;;;;;;5016118;28;20475;-65
2023/10/16 17:18:36;;;;;;;;;;;;;;;;;;5052276;28;20011;-64
2023/10/16 17:21:03;;;;;;;;;;;;;;;;;;5053853;28;19921;-65
2023/10/16 17:23:29;;;;;;;;;;;;;;;;;;5053620;28;19975;-65
2023/10/16 17:25:55;;;;;;;;;;;;;;;;;;5053600;28;19983;-64
2023/10/16 17:28:21;;;;;;;;;;;;;;;;;;5035766;28;19975;-64
2023/10/16 17:30:47;;;;;;;;;;;;;;;;;;5053522;28;20339;-64
2023/10/16 17:33:13;;;;;;;;;;;;;;;;;;5053979;28;19924;-65
2023/10/16 17:35:39;;;;;;;;;;;;;;;;;;5035778;28;20023;-64
2023/10/16 17:38:10;;;;;;;;;;;;;;;;;;5035698;28;19929;-64
2023/10/16 17:40:36;;;;;;;;;;;;;;;;;;5035737;28;19936;-64
2023/10/16 17:43:02;;;;;;;;;;;;;;;;;;5053770;28;19974;-65
2023/10/16 17:45:28;;;;;;;;;;;;;;;;;;5053410;28;19980;-65
2023/10/16 17:47:54;;;;;;;;;;;;;;;;;;5053486;28;20408;-65
2023/10/16 17:50:22;;;;;;;;;;;;;;;;;;5053244;28;19968;-64
2023/10/16 17:52:50;;;;;;;;;;;;;;;;;;5060635;28;20408;-65
2023/10/16 17:55:15;;;;;;;;;;;;;;;;;;5073238;28;20050;-64
2023/10/16 17:57:41;;;;;;;;;;;;;;;;;;5072714;28;20010;-64
2023/10/16 18:00:08;;;;;;;;;;;;;;;;;;5072709;28;19927;-64
2023/10/16 18:02:34;;;;;;;;;;;;;;;;;;5072943;28;20362;-65
2023/10/16 18:05:00;;;;;;;;;;;;;;;;;;5073183;28;20277;-64
2023/10/16 18:07:26;;;;;;;;;;;;;;;;;;5055054;28;19943;-63
2023/10/16 18:09:52;;;;;;;;;;;;;;;;;;5072939;28;19927;-64
2023/10/16 18:12:21;;;;;;;;;;;;;;;;;;5072569;28;19924;-64
2023/10/16 18:14:49;;;;;;;;;;;;;;;;;;5054787;28;19920;-64
2023/10/16 18:17:17;;;;;;;;;;;;;;;;;;5080911;28;20321;-65
2023/10/16 18:19:43;;;;;;;;;;;;;;;;;;5052816;28;19924;-65